createdAt,value
2018-12-18T00:00:59.910Z,30.20
2018-12-18T00:03:44.745Z,30.70
2018-12-18T00:06:23.514Z,33.27
2018-12-18T00:09:04.708Z,32.37
2018-12-18T00:11:45.634Z,38.23
2018-12-18T00:14:30.912Z,38.10
2018-12-18T00:17:12.747Z,41.80
2018-12-18T00:19:57.406Z,37.87
2018-12-18T00:25:36.466Z,38.10
2018-12-18T00:28:14.507Z,38.50
2018-12-18T00:33:53.910Z,34.30
2018-12-18T00:36:40.130Z,34.13
2018-12-18T00:39:25.142Z,31.87
2018-12-18T00:42:08.393Z,36.03
2018-12-18T00:44:53.256Z,39.47
2018-12-18T00:47:44.297Z,35.80
2018-12-18T00:50:30.094Z,35.53
2018-12-18T00:53:08.849Z,38.20
2018-12-18T00:55:49.795Z,42.23
2018-12-18T00:58:29.276Z,35.07
2018-12-18T01:01:07.199Z,36.80
2018-12-18T01:03:53.262Z,35.97
2018-12-18T01:06:32.868Z,36.20
2018-12-18T01:09:10.018Z,40.83
2018-12-18T01:11:50.222Z,35.67
2018-12-18T01:14:35.514Z,38.37
2018-12-18T01:17:13.263Z,35.40
2018-12-18T01:20:02.582Z,36.73
2018-12-18T01:22:47.569Z,31.60
2018-12-18T01:25:36.570Z,35.53
2018-12-18T01:28:22.230Z,36.70
2018-12-18T01:31:10.921Z,38.97
2018-12-18T01:33:51.103Z,37.90
2018-12-18T01:36:29.609Z,39.20
2018-12-18T01:39:09.718Z,36.23
2018-12-18T01:41:57.547Z,38.40
2018-12-18T01:44:38.541Z,41.50
2018-12-18T01:47:23.846Z,41.13
2018-12-18T01:53:09.255Z,40.30
2018-12-18T01:55:54.227Z,41.30
2018-12-18T01:58:41.236Z,35.03
2018-12-18T02:01:18.270Z,43.90
2018-12-18T02:04:05.754Z,39.07
2018-12-18T02:06:48.423Z,42.13
2018-12-18T02:09:34.087Z,37.20
2018-12-18T02:12:17.640Z,40.20
2018-12-18T02:15:04.779Z,40.37
2018-12-18T02:17:43.093Z,39.20
2018-12-18T02:20:28.136Z,38.87
2018-12-18T02:22:57.609Z,37.07
2018-12-18T02:28:52.601Z,37.13
2018-12-18T02:31:40.306Z,40.13
2018-12-18T02:34:28.055Z,39.50
2018-12-18T02:37:15.125Z,41.77
2018-12-18T02:43:00.399Z,42.77
2018-12-18T02:45:46.015Z,33.90
2018-12-18T02:51:33.572Z,33.63
2018-12-18T02:54:19.371Z,35.93
2018-12-18T02:57:04.300Z,33.97
2018-12-18T02:59:43.827Z,38.93
2018-12-18T03:05:29.061Z,33.80
2018-12-18T03:11:03.834Z,38.30
2018-12-18T03:13:50.883Z,31.70
2018-12-18T03:16:36.001Z,33.20
2018-12-18T03:19:27.022Z,33.90
2018-12-18T03:22:11.879Z,35.17
2018-12-18T03:24:54.405Z,33.70
2018-12-18T03:27:40.761Z,37.23
2018-12-18T03:30:25.786Z,36.67
2018-12-18T03:33:13.068Z,35.00
2018-12-18T03:35:53.790Z,37.03
2018-12-18T03:38:39.264Z,41.10
2018-12-18T03:41:19.674Z,34.40
2018-12-18T03:44:01.720Z,35.10
2018-12-18T03:46:39.020Z,36.40
2018-12-18T03:49:25.013Z,33.73
2018-12-18T03:52:12.196Z,35.50
2018-12-18T03:54:57.047Z,36.27
2018-12-18T03:57:42.683Z,36.13
2018-12-18T04:00:21.555Z,35.77
2018-12-18T04:03:06.673Z,33.60
2018-12-18T04:05:54.789Z,29.73
2018-12-18T04:14:48.350Z,34.27
2018-12-18T04:17:34.139Z,36.03
2018-12-18T04:20:21.366Z,33.53
2018-12-18T04:23:02.749Z,36.87
2018-12-18T04:25:52.826Z,39.70
2018-12-18T04:28:38.414Z,35.13
2018-12-18T04:31:15.822Z,30.97
2018-12-18T04:34:02.411Z,42.63
2018-12-18T04:36:47.990Z,38.73
2018-12-18T04:39:33.047Z,37.90
2018-12-18T04:42:17.984Z,36.30
2018-12-18T04:47:58.304Z,41.67
2018-12-18T04:50:43.862Z,36.03
2018-12-18T04:56:29.318Z,35.13
2018-12-18T04:59:16.495Z,36.27
2018-12-18T05:04:57.345Z,37.83
2018-12-18T05:07:42.653Z,33.40
2018-12-18T05:10:24.268Z,34.47
2018-12-18T05:13:05.979Z,31.77
2018-12-18T05:15:58.331Z,36.77
2018-12-18T05:21:43.432Z,35.43
2018-12-18T05:24:20.861Z,32.53
2018-12-18T05:30:15.981Z,35.90
2018-12-18T05:33:01.068Z,33.43
2018-12-18T05:35:48.820Z,37.63
2018-12-18T05:38:36.580Z,34.70
2018-12-18T05:41:14.044Z,32.20
2018-12-18T05:44:07.133Z,30.93
2018-12-18T05:46:46.892Z,31.37
2018-12-18T05:49:26.461Z,31.07
2018-12-18T05:55:22.883Z,39.10
2018-12-18T05:58:04.481Z,30.03
2018-12-18T06:00:42.915Z,32.13
2018-12-18T06:03:28.244Z,31.40
2018-12-18T06:06:15.604Z,35.10
2018-12-18T06:09:03.323Z,34.90
2018-12-18T06:11:42.738Z,35.70
2018-12-18T06:14:31.424Z,32.43
2018-12-18T06:17:08.919Z,36.20
2018-12-18T06:22:50.543Z,33.40
2018-12-18T06:25:36.512Z,36.87
2018-12-18T06:28:26.464Z,34.13
2018-12-18T06:31:15.237Z,39.77
2018-12-18T06:34:03.907Z,32.73
2018-12-18T06:36:48.613Z,31.50
2018-12-18T06:39:34.317Z,33.57
2018-12-18T06:42:22.742Z,35.37
2018-12-18T06:45:10.418Z,34.17
2018-12-18T06:47:50.303Z,34.57
2018-12-18T06:50:34.257Z,31.53
2018-12-18T06:53:12.203Z,33.40
2018-12-18T06:59:10.129Z,32.90
2018-12-18T07:02:00.463Z,35.20
2018-12-18T07:04:44.933Z,36.73
2018-12-18T07:07:29.145Z,40.90
2018-12-18T07:10:14.255Z,32.87
2018-12-18T07:12:59.879Z,35.80
2018-12-18T07:15:39.139Z,33.27
2018-12-18T07:18:22.356Z,35.03
2018-12-18T07:21:18.196Z,34.60
2018-12-18T07:27:00.965Z,39.33
2018-12-18T07:29:40.489Z,37.80
2018-12-18T07:32:30.399Z,29.90
2018-12-18T07:35:23.318Z,39.10
2018-12-18T07:38:13.583Z,34.53
2018-12-18T07:41:01.147Z,37.30
2018-12-18T07:43:48.159Z,36.30
2018-12-18T07:49:23.089Z,35.17
2018-12-18T07:52:14.486Z,37.30
2018-12-18T07:55:04.484Z,39.33
2018-12-18T07:57:51.864Z,32.57
2018-12-18T08:00:30.114Z,30.67
2018-12-18T08:03:13.028Z,30.40
2018-12-18T08:05:52.123Z,27.00
2018-12-18T08:08:30.716Z,29.47
2018-12-18T08:11:11.329Z,28.03
2018-12-18T08:13:55.910Z,28.80
2018-12-18T08:22:39.048Z,24.90
2018-12-18T08:25:20.337Z,27.50
2018-12-18T08:31:03.181Z,28.20
2018-12-18T08:36:45.039Z,23.83
2018-12-18T08:39:23.833Z,23.33
2018-12-18T08:45:18.017Z,23.10
2018-12-18T08:48:10.051Z,20.53
2018-12-18T08:50:50.127Z,23.50
2018-12-18T08:53:38.281Z,21.50
2018-12-18T08:56:24.843Z,25.90
2018-12-18T08:59:02.430Z,24.30
2018-12-18T09:01:44.507Z,24.40
2018-12-18T09:04:22.184Z,23.97
2018-12-18T09:07:09.031Z,29.20
2018-12-18T09:09:57.465Z,24.23
2018-12-18T09:12:43.097Z,29.87
2018-12-18T09:15:33.475Z,25.40
2018-12-18T09:18:19.254Z,24.87
2018-12-18T09:20:56.258Z,23.80
2018-12-18T09:23:36.805Z,29.30
2018-12-18T09:26:26.785Z,22.10
2018-12-18T09:32:14.737Z,25.00
2018-12-18T09:37:45.214Z,26.97
2018-12-18T09:40:28.621Z,29.73
2018-12-18T09:44:20.990Z,27.93
2018-12-18T09:46:58.756Z,22.53
2018-12-18T09:49:52.641Z,28.40
2018-12-18T09:52:38.530Z,23.03
2018-12-18T09:55:16.141Z,23.20
2018-12-18T10:01:07.368Z,27.17
2018-12-18T10:06:54.956Z,27.37
2018-12-18T10:09:34.496Z,31.73
2018-12-18T10:12:17.097Z,24.60
2018-12-18T10:15:04.886Z,25.33
2018-12-18T10:27:21.449Z,27.80
2018-12-18T10:30:09.153Z,30.63
2018-12-18T10:35:51.919Z,28.40
2018-12-18T10:38:37.611Z,31.93
2018-12-18T10:41:14.582Z,26.87
2018-12-18T10:44:01.896Z,26.93
2018-12-18T10:46:47.250Z,25.70
2018-12-18T10:49:32.662Z,28.03
2018-12-18T10:52:10.307Z,32.83
2018-12-18T10:54:57.723Z,30.87
2018-12-18T10:57:43.338Z,30.83
2018-12-18T11:00:34.622Z,28.80
2018-12-18T11:03:13.904Z,26.70
2018-12-18T11:05:59.837Z,28.30
2018-12-18T11:08:40.211Z,34.30
2018-12-18T11:14:26.174Z,28.13
2018-12-18T11:17:04.677Z,32.83
2018-12-18T11:19:52.177Z,31.40
2018-12-18T11:22:41.078Z,35.83
2018-12-18T11:25:22.361Z,30.53
2018-12-18T11:28:04.831Z,28.77
2018-12-18T11:30:52.850Z,31.20
2018-12-18T11:36:53.586Z,34.40
2018-12-18T11:39:31.745Z,30.10
2018-12-18T11:42:17.698Z,31.80
2018-12-18T11:44:55.300Z,26.53
2018-12-18T11:47:42.686Z,32.00
2018-12-18T11:50:20.328Z,32.90
2018-12-18T11:53:08.420Z,30.40
2018-12-18T11:55:51.422Z,30.60
2018-12-18T11:58:40.679Z,34.77
2018-12-18T12:01:20.754Z,27.70
2018-12-18T12:04:06.986Z,28.13
2018-12-18T12:06:44.855Z,27.67
2018-12-18T12:09:23.726Z,27.30
2018-12-18T12:15:21.562Z,28.67
2018-12-18T12:18:04.130Z,32.10
2018-12-18T12:20:46.554Z,28.13
2018-12-18T12:23:34.603Z,25.70
2018-12-18T12:26:17.641Z,25.60
2018-12-18T12:28:54.762Z,26.23
2018-12-18T12:34:50.557Z,25.17
2018-12-18T12:37:28.988Z,23.83
2018-12-18T12:40:14.180Z,27.10
2018-12-18T12:42:50.643Z,25.80
2018-12-18T12:45:39.966Z,27.23
2018-12-18T12:48:19.256Z,24.23
2018-12-18T12:50:56.867Z,23.10
2018-12-18T12:53:35.571Z,20.30
2018-12-18T12:59:31.406Z,22.43
2018-12-18T13:02:13.544Z,20.80
2018-12-18T13:04:58.163Z,25.77
2018-12-18T13:07:43.967Z,20.33
2018-12-18T13:10:21.096Z,18.30
2018-12-18T13:16:21.940Z,23.20
2018-12-18T13:19:02.799Z,21.20
2018-12-18T13:21:49.700Z,19.57
2018-12-18T13:24:37.640Z,25.40
2018-12-18T13:27:28.387Z,17.80
2018-12-18T13:30:10.313Z,18.17
2018-12-18T13:32:51.631Z,15.17
2018-12-18T13:35:37.669Z,15.47
2018-12-18T13:38:17.161Z,18.97
2018-12-18T13:40:54.442Z,15.97
2018-12-18T13:43:41.136Z,11.43
2018-12-18T13:46:24.210Z,14.17
2018-12-18T13:52:09.725Z,17.13
2018-12-18T13:54:57.361Z,16.57
2018-12-18T13:57:49.679Z,18.10
2018-12-18T14:00:37.524Z,18.70
2018-12-18T14:03:16.746Z,14.73
2018-12-18T14:06:02.147Z,14.43
2018-12-18T14:11:42.818Z,14.00
2018-12-18T14:14:26.576Z,17.90
2018-12-18T14:17:12.268Z,13.83
2018-12-18T14:19:50.949Z,12.30
2018-12-18T14:25:47.033Z,20.83
2018-12-18T14:28:32.576Z,11.20
2018-12-18T14:31:12.311Z,10.50
2018-12-18T14:37:02.996Z,11.23
2018-12-18T14:39:47.012Z,14.27
2018-12-18T14:42:28.714Z,15.63
2018-12-18T14:45:04.970Z,12.73
2018-12-18T14:47:45.484Z,13.80
2018-12-18T14:50:35.235Z,17.23
2018-12-18T14:53:18.689Z,16.50
2018-12-18T14:55:58.482Z,20.03
2018-12-18T14:58:45.011Z,13.67
2018-12-18T15:01:24.908Z,12.20
2018-12-18T15:04:04.598Z,13.30
2018-12-18T15:06:45.821Z,14.20
2018-12-18T15:09:32.000Z,11.37
2018-12-18T15:12:08.732Z,11.90
2018-12-18T15:14:46.134Z,11.17
2018-12-18T15:17:31.404Z,9.37
2018-12-18T15:20:14.479Z,10.37
2018-12-18T15:25:30.577Z,7.50
2018-12-18T15:28:19.153Z,11.10
2018-12-18T15:33:57.701Z,11.10
2018-12-18T15:36:44.868Z,12.70
2018-12-18T15:39:32.421Z,8.13
2018-12-18T15:42:22.564Z,10.70
2018-12-18T15:45:15.209Z,11.17
2018-12-18T15:48:07.116Z,8.30
2018-12-18T15:50:44.886Z,11.20
2018-12-18T15:53:28.511Z,13.17
2018-12-18T15:56:07.765Z,9.90
2018-12-18T15:58:45.333Z,11.63
2018-12-18T16:01:24.692Z,9.67
2018-12-18T16:04:09.149Z,11.13
2018-12-18T16:06:55.936Z,11.03
2018-12-18T16:09:41.315Z,8.47
2018-12-18T16:12:28.850Z,14.70
2018-12-18T16:15:16.617Z,10.80
2018-12-18T16:17:58.150Z,12.17
2018-12-18T16:23:48.520Z,11.73
2018-12-18T16:26:26.170Z,11.60
2018-12-18T16:32:16.418Z,8.60
2018-12-18T16:34:59.186Z,9.23
2018-12-18T16:37:45.097Z,9.20
2018-12-18T16:40:33.964Z,7.80
2018-12-18T16:43:11.111Z,9.40
2018-12-18T16:45:56.485Z,11.17
2018-12-18T16:48:43.355Z,9.30
2018-12-18T16:51:30.589Z,11.27
2018-12-18T16:54:16.129Z,10.47
2018-12-18T16:56:58.715Z,8.87
2018-12-18T16:59:47.560Z,9.47
2018-12-18T17:02:28.350Z,8.00
2018-12-18T17:05:18.046Z,11.87
2018-12-18T17:14:20.925Z,12.37
2018-12-18T17:17:06.318Z,7.73
2018-12-18T17:19:53.838Z,11.90
2018-12-18T17:22:31.651Z,9.90
2018-12-18T17:25:20.827Z,9.17
2018-12-18T17:28:10.612Z,9.40
2018-12-18T17:30:51.219Z,10.53
2018-12-18T17:33:29.533Z,13.07
2018-12-18T17:36:09.296Z,11.73
2018-12-18T17:38:51.631Z,11.17
2018-12-18T17:41:38.199Z,8.07
2018-12-18T17:44:25.466Z,11.10
2018-12-18T17:47:03.013Z,8.97
2018-12-18T17:49:49.625Z,12.00
2018-12-18T17:52:39.076Z,8.10
2018-12-18T17:55:25.709Z,10.10
2018-12-18T17:58:10.818Z,12.20
2018-12-18T18:01:03.123Z,12.33
2018-12-18T18:03:44.662Z,10.80
2018-12-18T18:06:30.604Z,10.10
2018-12-18T18:09:18.583Z,9.93
2018-12-18T18:11:59.256Z,9.47
2018-12-18T18:14:44.758Z,12.70
2018-12-18T18:17:30.950Z,11.77
2018-12-18T18:20:23.200Z,15.27
2018-12-18T18:23:00.498Z,9.50
2018-12-18T18:25:42.300Z,11.50
2018-12-18T18:28:28.789Z,9.67
2018-12-18T18:31:09.868Z,9.37
2018-12-18T18:33:48.833Z,7.93
2018-12-18T18:36:28.455Z,14.20
2018-12-18T18:39:07.180Z,10.63
2018-12-18T18:47:52.204Z,10.20
2018-12-18T18:53:37.949Z,11.57
2018-12-18T18:56:23.746Z,11.60
2018-12-18T18:59:01.326Z,12.60
2018-12-18T19:01:38.698Z,11.40
2018-12-18T19:04:15.944Z,13.53
2018-12-18T19:06:53.122Z,14.10
2018-12-18T19:09:38.949Z,12.13
2018-12-18T19:12:25.220Z,17.70
2018-12-18T19:15:13.108Z,14.20
2018-12-18T19:20:50.031Z,14.53
2018-12-18T19:23:41.227Z,15.57
2018-12-18T19:26:29.104Z,13.63
2018-12-18T19:29:10.928Z,15.50
2018-12-18T19:31:56.721Z,11.90
2018-12-18T19:34:40.301Z,14.10
2018-12-18T19:37:27.811Z,13.50
2018-12-18T19:43:10.244Z,11.30
2018-12-18T19:45:48.124Z,14.83
2018-12-18T19:48:30.469Z,11.03
2018-12-18T19:51:16.756Z,10.23
2018-12-18T19:57:10.966Z,10.57
2018-12-18T19:59:59.072Z,9.93
2018-12-18T20:02:48.208Z,13.37
2018-12-18T20:05:30.177Z,11.37
2018-12-18T20:11:24.891Z,11.37
2018-12-18T20:49:58.262Z,17.77
2018-12-18T21:05:23.793Z,19.33
2018-12-18T21:11:20.524Z,20.03
2018-12-18T21:17:07.408Z,19.70
2018-12-18T21:19:55.525Z,17.97
2018-12-18T21:38:30.255Z,18.40
2018-12-18T21:44:17.712Z,17.20
2018-12-18T22:15:08.942Z,13.50
